메인 페이지
METAR-TAF:

METAR-TAF

공항 :

레오나르도 다 빈치 국제공항

로마 피우미치노, 이탈리아

위도: 41-48N, 경도: 012-14E, 고도: 2m

현재 날씨관측

예보는 42분 전, 11:20시(UTC)에 발표되었습니다.
여러 방향의 바람 3kt
온도 24°C
습도 57%
기압 1021 hPa
시정 10km 이상
1500m 미만 상공 구름 및 적란운 없음

METAR: LIRF 201120Z VRB03KT CAVOK 24/15 Q1021 NOSIG

시각: 14:02 (12:02 UTC)

예보

예보는 24분 전, 11:38시(UTC)에 발표되었습니다.
예보 대상 시간: 20일 12시부터 21일 18시까지 (UTC)
10kt
시정 10km 이상
1500m 미만 상공 구름 및 적란운 없음
전환 중
20일 17시부터 20일 19시까지 (UTC)
여러 방향의 바람 5kt
일시적
20일 22시부터 21일 04시까지 (UTC)
시정: 3000m
박무
전환 중
21일 10시부터 21일 12시까지 (UTC)
남서10kt
일시적
21일 16시부터 21일 18시까지 (UTC)

TAF: LIRF 201138Z 2012/2118 28010KT CAVOK BECMG 2017/2019 VRB05KT TEMPO 2022/2104 3000 BR BECMG 2110/2112 22010KT TEMPO 2116/2118 RA

4,000개 이상의 공항 관측 자료 및 예보 (METAR 및 TAF 보고).

지도상에서 검색 가능한 기상관측소가 노란 점과 빨간 점으로 표시되어 있습니다.

기상관측소 명을 보려면 표시 위로 마우스를 이동하세요.

날씨 관측과 예보를 보려면 클릭하세요.

지도 변경 : 확대하려면 엑스 표시가 있는 녹색 버튼, 축소하려면 빼기 표시가 있는 녹색 버튼, 다음 페이지의 지도를 보려면 녹색 화살표를 클릭하세요.


METAR-TAF: